createdAt,value
2023-05-15T00:02:57.931Z,6.70
2023-05-15T00:05:29.339Z,6.90
2023-05-15T00:08:05.543Z,6.93
2023-05-15T00:13:15.241Z,6.88
2023-05-15T00:18:40.377Z,6.57
2023-05-15T00:21:12.406Z,6.53
2023-05-15T00:26:28.135Z,6.47
2023-05-15T00:29:07.764Z,7.53
2023-05-15T00:31:36.293Z,6.40
2023-05-15T00:34:10.346Z,6.85
2023-05-15T00:36:40.835Z,6.53
2023-05-15T00:42:01.918Z,6.60
2023-05-15T00:47:17.993Z,6.95
2023-05-15T00:49:50.691Z,6.45
2023-05-15T00:57:49.560Z,6.43
2023-05-15T01:00:20.076Z,6.47
2023-05-15T01:02:49.820Z,6.15
2023-05-15T01:05:21.889Z,6.63
2023-05-15T01:10:39.193Z,5.40
2023-05-15T01:13:11.869Z,6.30
2023-05-15T01:15:39.880Z,6.28
2023-05-15T01:18:10.289Z,6.43
2023-05-15T01:21:04.780Z,6.55
2023-05-15T01:23:42.261Z,6.53
2023-05-15T01:26:38.375Z,6.53
2023-05-15T01:29:12.725Z,6.15
2023-05-15T01:31:49.223Z,5.85
2023-05-15T01:34:25.409Z,6.88
2023-05-15T01:36:57.684Z,6.53
2023-05-15T01:39:29.337Z,6.45
2023-05-15T01:42:03.536Z,7.23
2023-05-15T01:44:36.890Z,6.40
2023-05-15T01:47:11.381Z,6.23
2023-05-15T01:49:40.451Z,5.68
2023-05-15T01:52:24.130Z,6.15
2023-05-15T01:54:52.542Z,5.80
2023-05-15T01:57:21.965Z,6.40
2023-05-15T01:59:51.780Z,6.00
2023-05-15T02:02:20.032Z,5.85
2023-05-15T02:04:49.431Z,6.10
2023-05-15T02:07:17.869Z,5.45
2023-05-15T02:09:50.374Z,6.05
2023-05-15T02:12:21.406Z,5.90
2023-05-15T02:14:50.663Z,5.45
2023-05-15T02:17:23.961Z,5.60
2023-05-15T02:19:52.776Z,4.85
2023-05-15T02:22:20.552Z,6.00
2023-05-15T02:24:48.747Z,5.47
2023-05-15T02:27:28.587Z,5.88
2023-05-15T02:30:35.548Z,7.30
2023-05-15T02:33:32.162Z,7.18
2023-05-15T02:36:06.220Z,5.43
2023-05-15T02:38:40.284Z,6.43
2023-05-15T02:41:10.538Z,5.60
2023-05-15T02:43:41.494Z,5.53
2023-05-15T02:46:10.243Z,5.93
2023-05-15T02:48:42.307Z,5.95
2023-05-15T02:51:10.507Z,5.43
2023-05-15T02:53:42.775Z,6.03
2023-05-15T02:58:40.336Z,5.93
2023-05-15T03:01:08.842Z,5.75
2023-05-15T03:03:36.895Z,5.50
2023-05-15T03:06:05.590Z,6.68
2023-05-15T03:08:33.920Z,7.63
2023-05-15T03:11:03.932Z,6.03
2023-05-15T03:13:31.954Z,6.38
2023-05-15T03:16:00.167Z,5.57
2023-05-15T03:18:29.150Z,5.90
2023-05-15T03:20:57.239Z,5.97
2023-05-15T03:23:25.110Z,6.00
2023-05-15T03:25:56.503Z,5.07
2023-05-15T03:28:24.867Z,5.10
2023-05-15T03:30:56.462Z,5.20
2023-05-15T03:33:28.648Z,5.10
2023-05-15T03:35:56.564Z,5.38
2023-05-15T03:38:24.594Z,5.55
2023-05-15T03:40:57.670Z,4.68
2023-05-15T03:43:26.577Z,5.40
2023-05-15T03:46:01.404Z,4.70
2023-05-15T03:48:30.344Z,5.18
2023-05-15T03:51:00.549Z,5.30
2023-05-15T03:53:34.067Z,4.57
2023-05-15T03:56:04.747Z,4.50
2023-05-15T03:58:32.976Z,4.75
2023-05-15T04:01:05.272Z,4.78
2023-05-15T04:03:33.419Z,4.93
2023-05-15T04:06:01.650Z,4.63
2023-05-15T04:08:30.496Z,4.55
2023-05-15T04:10:58.905Z,5.07
2023-05-15T04:13:26.843Z,4.72
2023-05-15T04:15:56.446Z,5.07
2023-05-15T04:18:26.642Z,5.10
2023-05-15T04:20:59.047Z,5.47
2023-05-15T04:23:27.310Z,5.10
2023-05-15T04:25:57.012Z,4.65
2023-05-15T04:28:28.603Z,5.15
2023-05-15T04:33:27.369Z,5.03
2023-05-15T04:35:55.349Z,5.00
2023-05-15T04:38:23.169Z,4.97
2023-05-15T04:40:51.096Z,5.68
2023-05-15T04:43:19.447Z,6.20
2023-05-15T04:45:47.598Z,6.80
2023-05-15T04:48:14.755Z,6.85
2023-05-15T04:50:41.963Z,7.10
2023-05-15T04:53:09.004Z,5.80
2023-05-15T04:55:36.152Z,6.57
2023-05-15T04:58:03.539Z,5.03
2023-05-15T05:00:31.316Z,5.85
2023-05-15T05:02:58.457Z,5.22
2023-05-15T05:05:26.431Z,6.25
2023-05-15T05:07:53.720Z,6.10
2023-05-15T05:10:21.485Z,6.22
2023-05-15T05:12:48.650Z,5.82
2023-05-15T05:15:21.515Z,7.07
2023-05-15T05:17:51.700Z,6.07
2023-05-15T05:20:19.019Z,7.13
2023-05-15T05:22:46.012Z,6.28
2023-05-15T05:25:13.269Z,5.38
2023-05-15T05:27:40.358Z,5.95
2023-05-15T05:30:08.857Z,5.80
2023-05-15T05:32:35.957Z,6.30
2023-05-15T05:35:04.133Z,5.57
2023-05-15T05:37:31.127Z,6.50
2023-05-15T05:40:00.364Z,5.38
2023-05-15T05:42:27.936Z,5.45
2023-05-15T05:44:54.981Z,5.35
2023-05-15T05:47:22.171Z,5.43
2023-05-15T05:49:53.896Z,4.82
2023-05-15T05:52:20.982Z,4.70
2023-05-15T05:54:50.284Z,5.07
2023-05-15T05:57:17.229Z,5.47
2023-05-15T05:59:44.203Z,5.35
2023-05-15T06:02:11.551Z,5.25
2023-05-15T06:04:38.611Z,4.72
2023-05-15T06:07:05.561Z,5.32
2023-05-15T06:09:33.011Z,5.30
2023-05-15T06:12:00.941Z,6.60
2023-05-15T06:14:30.187Z,6.00
2023-05-15T06:16:57.230Z,5.82
2023-05-15T06:19:24.394Z,6.50
2023-05-15T06:21:51.450Z,5.82
2023-05-15T06:24:19.922Z,5.50
2023-05-15T06:26:46.951Z,5.00
2023-05-15T06:29:14.035Z,4.80
2023-05-15T06:31:41.044Z,5.20
2023-05-15T06:34:07.944Z,5.57
2023-05-15T06:36:35.460Z,5.55
2023-05-15T06:39:02.394Z,5.20
2023-05-15T06:41:29.414Z,5.72
2023-05-15T06:43:56.380Z,5.40
2023-05-15T06:46:23.412Z,8.20
2023-05-15T06:48:50.511Z,6.25
2023-05-15T06:51:17.605Z,6.97
2023-05-15T06:53:44.605Z,6.03
2023-05-15T06:56:11.756Z,5.82
2023-05-15T06:58:39.421Z,5.85
2023-05-15T07:01:07.329Z,6.13
2023-05-15T07:03:34.345Z,6.35
2023-05-15T07:06:01.343Z,6.65
2023-05-15T07:08:28.973Z,6.95
2023-05-15T07:10:56.207Z,6.00
2023-05-15T07:13:26.121Z,6.03
2023-05-15T07:15:53.136Z,6.30
2023-05-15T07:18:20.152Z,5.60
2023-05-15T07:20:47.176Z,5.95
2023-05-15T07:23:14.253Z,5.63
2023-05-15T07:25:41.236Z,5.97
2023-05-15T07:28:08.330Z,4.65
2023-05-15T07:30:35.656Z,5.28
2023-05-15T07:33:03.540Z,4.85
2023-05-15T07:35:30.668Z,5.43
2023-05-15T07:37:57.661Z,5.75
2023-05-15T07:40:24.884Z,5.32
2023-05-15T07:42:52.124Z,4.68
2023-05-15T07:45:19.392Z,5.10
2023-05-15T07:47:48.262Z,4.35
2023-05-15T07:50:18.104Z,4.68
2023-05-15T07:52:45.209Z,4.30
2023-05-15T07:55:12.858Z,5.28
2023-05-15T07:57:42.629Z,4.80
2023-05-15T08:00:11.259Z,4.57
2023-05-15T08:02:38.408Z,4.97
2023-05-15T08:05:06.030Z,5.47
2023-05-15T08:07:36.194Z,5.18
2023-05-15T08:10:06.419Z,5.30
2023-05-15T08:12:33.905Z,5.47
2023-05-15T08:15:01.132Z,4.15
2023-05-15T08:17:28.123Z,4.25
2023-05-15T08:19:55.469Z,4.70
2023-05-15T08:22:22.593Z,4.15
2023-05-15T08:24:49.566Z,4.10
2023-05-15T08:27:16.568Z,4.60
2023-05-15T08:29:43.531Z,3.78
2023-05-15T08:32:10.897Z,3.97
2023-05-15T08:34:38.781Z,3.40
2023-05-15T08:37:06.899Z,3.70
2023-05-15T08:39:33.863Z,4.03
2023-05-15T08:42:24.531Z,3.75
2023-05-15T08:44:51.752Z,3.47
2023-05-15T08:47:19.720Z,4.38
2023-05-15T08:50:15.260Z,4.40
2023-05-15T08:52:44.085Z,4.20
2023-05-15T08:55:11.565Z,5.03
2023-05-15T08:57:39.297Z,4.38
2023-05-15T09:00:09.345Z,4.47
2023-05-15T09:02:37.656Z,3.97
2023-05-15T09:05:09.744Z,3.85
2023-05-15T09:10:04.575Z,4.18
2023-05-15T09:12:34.662Z,4.25
2023-05-15T09:15:12.185Z,3.60
2023-05-15T09:17:41.005Z,3.97
2023-05-15T09:20:08.774Z,3.90
2023-05-15T09:22:37.056Z,3.33
2023-05-15T09:25:04.596Z,4.50
2023-05-15T09:27:41.123Z,4.15
2023-05-15T09:30:11.591Z,3.45
2023-05-15T09:32:38.709Z,4.00
2023-05-15T09:35:07.728Z,4.05
2023-05-15T09:37:35.076Z,4.35
2023-05-15T09:40:09.668Z,3.85
2023-05-15T09:42:37.096Z,4.45
2023-05-15T09:45:04.689Z,3.60
2023-05-15T09:47:32.027Z,3.83
2023-05-15T09:49:59.117Z,3.70
2023-05-15T09:52:27.943Z,4.50
2023-05-15T09:54:55.194Z,4.20
2023-05-15T09:57:23.622Z,4.20
2023-05-15T09:59:50.704Z,3.80
2023-05-15T10:02:36.674Z,4.22
2023-05-15T10:05:05.029Z,4.30
2023-05-15T10:07:36.724Z,5.10
2023-05-15T10:10:05.458Z,4.78
2023-05-15T10:12:32.642Z,4.05
2023-05-15T10:15:01.139Z,4.05
2023-05-15T10:17:29.494Z,4.63
2023-05-15T10:19:59.311Z,4.63
2023-05-15T10:22:30.244Z,4.57
2023-05-15T10:25:10.929Z,4.90
2023-05-15T10:27:39.374Z,5.47
2023-05-15T10:30:08.368Z,4.97
2023-05-15T10:32:37.422Z,4.75
2023-05-15T10:35:04.934Z,4.70
2023-05-15T10:37:32.733Z,4.63
2023-05-15T10:40:00.489Z,4.68
2023-05-15T10:42:28.056Z,4.25
2023-05-15T10:45:00.142Z,4.63
2023-05-15T10:49:54.756Z,5.45
2023-05-15T10:52:21.878Z,5.10
2023-05-15T10:54:50.515Z,4.85
2023-05-15T10:57:17.528Z,5.00
2023-05-15T10:59:44.707Z,5.45
2023-05-15T11:02:29.933Z,5.28
2023-05-15T11:05:03.566Z,5.25
2023-05-15T11:07:30.588Z,5.05
2023-05-15T11:09:57.883Z,4.78
2023-05-15T11:12:25.138Z,5.30
2023-05-15T11:14:52.486Z,5.00
2023-05-15T11:17:19.853Z,5.13
2023-05-15T11:19:50.007Z,5.13
2023-05-15T11:22:33.013Z,5.32
2023-05-15T11:25:01.052Z,5.40
2023-05-15T11:27:41.154Z,6.10
2023-05-15T11:30:25.344Z,5.35
2023-05-15T11:32:55.730Z,5.18
2023-05-15T11:35:39.341Z,5.50
2023-05-15T11:38:15.855Z,5.22
2023-05-15T11:41:03.796Z,4.97
2023-05-15T11:43:36.572Z,4.82
2023-05-15T11:46:03.470Z,5.70
2023-05-15T11:48:34.605Z,5.35
2023-05-15T11:51:02.275Z,5.30
2023-05-15T11:53:30.587Z,5.15
2023-05-15T11:55:57.785Z,5.00
2023-05-15T11:58:26.128Z,5.22
2023-05-15T12:00:54.260Z,4.90
2023-05-15T12:03:33.537Z,4.80
2023-05-15T12:06:02.098Z,4.35
2023-05-15T12:08:37.596Z,4.95
2023-05-15T12:11:05.271Z,4.38
2023-05-15T12:13:33.445Z,4.68
2023-05-15T12:16:02.000Z,4.57
2023-05-15T12:18:29.941Z,3.95
2023-05-15T12:20:57.044Z,4.60
2023-05-15T12:23:25.958Z,4.68
2023-05-15T12:25:58.843Z,4.63
2023-05-15T12:28:26.744Z,4.45
2023-05-15T12:30:54.580Z,4.60
2023-05-15T12:33:21.777Z,4.57
2023-05-15T12:35:58.021Z,4.35
2023-05-15T12:38:28.284Z,4.53
2023-05-15T12:40:57.198Z,4.50
2023-05-15T12:43:25.611Z,5.03
2023-05-15T12:45:54.398Z,4.85
2023-05-15T12:48:21.973Z,4.63
2023-05-15T12:50:52.218Z,4.28
2023-05-15T12:53:21.886Z,4.60
2023-05-15T12:55:49.163Z,4.28
2023-05-15T12:58:18.984Z,4.05
2023-05-15T13:00:46.911Z,4.45
2023-05-15T13:03:14.645Z,4.57
2023-05-15T13:05:45.887Z,4.20
2023-05-15T13:08:17.857Z,4.50
2023-05-15T13:10:46.301Z,3.80
2023-05-15T13:13:13.810Z,4.47
2023-05-15T13:15:45.008Z,4.10
2023-05-15T13:18:16.917Z,4.00
2023-05-15T13:20:54.243Z,3.90
2023-05-15T13:23:24.963Z,4.07
2023-05-15T13:25:51.964Z,3.40
2023-05-15T13:28:18.940Z,3.85
2023-05-15T13:30:46.055Z,3.42
2023-05-15T13:33:13.194Z,2.92
2023-05-15T13:35:41.704Z,3.35
2023-05-15T13:38:11.330Z,3.80
2023-05-15T13:40:39.244Z,4.03
2023-05-15T13:43:06.900Z,3.22
2023-05-15T13:45:34.171Z,2.83
2023-05-15T13:48:01.686Z,3.00
2023-05-15T13:50:28.886Z,2.65
2023-05-15T13:52:56.121Z,2.90
2023-05-15T13:55:24.097Z,3.00
2023-05-15T13:57:52.323Z,3.05
2023-05-15T14:00:20.340Z,2.65
2023-05-15T14:02:47.443Z,3.40
2023-05-15T14:05:15.707Z,3.45
2023-05-15T14:07:43.007Z,3.10
2023-05-15T14:10:12.327Z,3.10
2023-05-15T14:12:39.813Z,3.15
2023-05-15T14:15:11.386Z,2.78
2023-05-15T14:17:38.458Z,2.50
2023-05-15T14:20:06.773Z,2.50
2023-05-15T14:22:33.728Z,2.90
2023-05-15T14:25:01.306Z,2.97
2023-05-15T14:27:28.583Z,2.75
2023-05-15T14:29:56.978Z,2.90
2023-05-15T14:32:24.540Z,2.67
2023-05-15T14:34:51.835Z,3.15
2023-05-15T14:37:19.820Z,2.50
2023-05-15T14:39:46.849Z,2.63
2023-05-15T14:42:14.000Z,2.63
2023-05-15T14:44:41.113Z,2.78
2023-05-15T14:47:15.015Z,2.97
2023-05-15T14:49:42.320Z,2.75
2023-05-15T14:52:10.199Z,2.72
2023-05-15T14:54:38.453Z,2.53
2023-05-15T14:57:05.945Z,2.70
2023-05-15T14:59:33.001Z,2.28
2023-05-15T15:02:01.020Z,2.35
2023-05-15T15:04:30.588Z,2.70
2023-05-15T15:06:57.688Z,2.78
2023-05-15T15:09:26.953Z,2.47
2023-05-15T15:11:55.424Z,3.03
2023-05-15T15:14:22.493Z,3.38
2023-05-15T15:16:52.449Z,3.17
2023-05-15T15:19:20.497Z,2.83
2023-05-15T15:21:48.469Z,2.75
2023-05-15T15:27:01.341Z,2.70
2023-05-15T15:29:31.300Z,2.88
2023-05-15T15:31:58.282Z,2.80
2023-05-15T15:34:25.254Z,2.83
2023-05-15T15:36:52.325Z,2.63
2023-05-15T15:39:22.784Z,2.42
2023-05-15T15:41:49.803Z,2.40
2023-05-15T15:44:16.829Z,2.63
2023-05-15T15:46:43.793Z,2.75
2023-05-15T15:49:11.061Z,2.72
2023-05-15T15:51:38.742Z,3.00
2023-05-15T15:54:06.562Z,3.03
2023-05-15T15:56:34.226Z,3.10
2023-05-15T15:59:01.503Z,2.83
2023-05-15T16:01:28.632Z,3.75
2023-05-15T16:03:55.999Z,4.00
2023-05-15T16:06:23.258Z,3.58
2023-05-15T16:08:53.525Z,2.88
2023-05-15T16:11:21.545Z,4.05
2023-05-15T16:13:48.706Z,4.30
2023-05-15T16:16:16.139Z,5.13
2023-05-15T16:18:43.386Z,6.35
2023-05-15T16:21:10.722Z,7.40
2023-05-15T16:23:40.971Z,6.03
2023-05-15T16:26:11.521Z,5.10
2023-05-15T16:28:40.905Z,4.00
2023-05-15T16:31:13.202Z,3.78
2023-05-15T16:33:40.413Z,4.30
2023-05-15T16:36:08.296Z,5.93
2023-05-15T16:38:35.703Z,4.15
2023-05-15T16:41:03.688Z,4.97
2023-05-15T16:43:31.137Z,5.47
2023-05-15T16:45:59.189Z,5.38
2023-05-15T16:48:27.665Z,4.03
2023-05-15T16:50:54.589Z,4.38
2023-05-15T16:53:22.458Z,4.05
2023-05-15T16:55:50.274Z,4.32
2023-05-15T16:58:17.607Z,4.95
2023-05-15T17:00:44.665Z,6.30
2023-05-15T17:03:13.111Z,6.68
2023-05-15T17:05:41.351Z,9.98
2023-05-15T17:08:10.846Z,8.60
2023-05-15T17:10:37.813Z,8.77
2023-05-15T17:13:04.830Z,16.95
2023-05-15T17:15:31.882Z,13.05
2023-05-15T17:17:59.216Z,11.30
2023-05-15T17:20:27.288Z,11.32
2023-05-15T17:22:54.814Z,9.38
2023-05-15T17:25:25.198Z,7.43
2023-05-15T17:27:58.394Z,5.57
2023-05-15T17:30:27.676Z,7.15
2023-05-15T17:32:54.970Z,6.53
2023-05-15T17:35:26.427Z,6.88
2023-05-15T17:37:54.124Z,5.55
2023-05-15T17:40:21.853Z,6.45
2023-05-15T17:42:49.106Z,5.93
2023-05-15T17:45:16.638Z,5.65
2023-05-15T17:47:43.787Z,5.68
2023-05-15T17:50:11.342Z,6.03
2023-05-15T17:52:38.460Z,6.25
2023-05-15T17:55:06.350Z,6.57
2023-05-15T17:57:35.385Z,8.40
2023-05-15T18:00:02.730Z,12.48
2023-05-15T18:02:29.925Z,16.80
2023-05-15T18:04:57.646Z,13.27
2023-05-15T18:07:25.620Z,10.20
2023-05-15T18:09:53.444Z,7.35
2023-05-15T18:12:20.899Z,7.40
2023-05-15T18:14:49.201Z,7.10
2023-05-15T18:17:20.331Z,7.25
2023-05-15T18:19:47.360Z,5.60
2023-05-15T18:22:15.304Z,5.25
2023-05-15T18:24:43.176Z,6.00
2023-05-15T18:27:11.267Z,5.85
2023-05-15T18:29:38.407Z,5.50
2023-05-15T18:32:06.340Z,5.40
2023-05-15T18:34:34.983Z,5.45
2023-05-15T18:37:01.939Z,5.85
2023-05-15T18:39:29.113Z,6.22
2023-05-15T18:42:07.241Z,5.95
2023-05-15T18:44:36.022Z,5.90
2023-05-15T18:47:03.208Z,5.72
2023-05-15T18:49:30.256Z,6.10
2023-05-15T18:51:58.075Z,6.85
2023-05-15T18:54:25.689Z,6.25
2023-05-15T18:56:53.275Z,7.13
2023-05-15T18:59:20.642Z,6.90
2023-05-15T19:01:49.286Z,7.28
2023-05-15T19:04:16.777Z,6.65
2023-05-15T19:06:44.380Z,7.60
2023-05-15T19:09:11.686Z,7.47
2023-05-15T19:11:38.953Z,6.88
2023-05-15T19:14:08.973Z,7.50
2023-05-15T19:16:36.561Z,7.70
2023-05-15T19:19:06.425Z,8.02
2023-05-15T19:21:35.066Z,9.77
2023-05-15T19:24:04.713Z,9.02
2023-05-15T19:26:34.443Z,10.80
2023-05-15T19:31:47.921Z,10.23
2023-05-15T19:34:15.390Z,10.73
2023-05-15T19:36:45.207Z,9.07
2023-05-15T19:39:13.185Z,8.90
2023-05-15T19:41:41.232Z,8.02
2023-05-15T19:44:08.617Z,8.70
2023-05-15T19:46:36.300Z,8.82
2023-05-15T19:49:03.415Z,9.48
2023-05-15T19:51:33.694Z,9.25
2023-05-15T19:56:46.501Z,10.43
2023-05-15T19:59:15.022Z,10.38
2023-05-15T20:01:43.808Z,9.40
2023-05-15T20:04:14.664Z,11.80
2023-05-15T20:06:45.195Z,11.45
2023-05-15T20:09:13.374Z,9.77
2023-05-15T20:11:45.074Z,8.00
2023-05-15T20:14:16.001Z,6.90
2023-05-15T20:16:43.430Z,6.07
2023-05-15T20:19:11.516Z,5.93
2023-05-15T20:21:39.491Z,5.18
2023-05-15T20:24:08.404Z,5.60
2023-05-15T20:26:37.996Z,5.60
2023-05-15T20:29:05.523Z,5.07
2023-05-15T20:31:33.923Z,5.50
2023-05-15T20:34:03.700Z,6.22
2023-05-15T20:36:32.856Z,6.20
2023-05-15T20:39:10.555Z,6.47
2023-05-15T20:41:38.278Z,6.75
2023-05-15T20:44:06.520Z,6.25
2023-05-15T20:46:34.300Z,6.63
2023-05-15T20:49:02.105Z,6.10
2023-05-15T20:51:29.858Z,6.10
2023-05-15T20:53:58.256Z,6.15
2023-05-15T20:56:26.285Z,6.45
2023-05-15T20:58:55.623Z,6.90
2023-05-15T21:01:24.563Z,7.32
2023-05-15T21:03:52.233Z,7.22
2023-05-15T21:06:20.518Z,6.90
2023-05-15T21:08:49.032Z,7.03
2023-05-15T21:11:16.455Z,6.97
2023-05-15T21:13:46.315Z,6.82
2023-05-15T21:16:13.821Z,7.10
2023-05-15T21:18:42.998Z,7.07
2023-05-15T21:21:11.371Z,6.75
2023-05-15T21:23:41.013Z,6.88
2023-05-15T21:26:10.697Z,7.35
2023-05-15T21:28:38.557Z,6.30
2023-05-15T21:31:10.631Z,6.13
2023-05-15T21:33:41.882Z,6.60
2023-05-15T21:36:10.338Z,5.38
2023-05-15T21:38:41.361Z,6.15
2023-05-15T21:41:09.360Z,5.65
2023-05-15T21:43:51.350Z,5.25
2023-05-15T21:46:19.315Z,4.90
2023-05-15T21:48:48.553Z,5.10
2023-05-15T21:51:17.134Z,5.20
2023-05-15T21:53:48.496Z,5.38
2023-05-15T21:56:17.043Z,5.30
2023-05-15T21:58:45.971Z,4.93
2023-05-15T22:01:14.204Z,5.35
2023-05-15T22:03:45.133Z,5.28
2023-05-15T22:06:13.752Z,5.05
2023-05-15T22:08:42.226Z,4.90
2023-05-15T22:11:10.659Z,5.20
2023-05-15T22:13:45.189Z,5.50
2023-05-15T22:16:14.303Z,5.57
2023-05-15T22:18:46.314Z,5.38
2023-05-15T22:23:50.089Z,5.47
2023-05-15T22:26:27.160Z,5.43
2023-05-15T22:28:56.912Z,5.05
2023-05-15T22:31:25.958Z,5.50
2023-05-15T22:36:48.772Z,4.72
2023-05-15T22:39:23.415Z,5.22
2023-05-15T22:41:52.036Z,4.75
2023-05-15T22:44:23.663Z,4.68
2023-05-15T22:46:52.109Z,3.90
2023-05-15T22:49:23.879Z,4.32
2023-05-15T22:54:34.213Z,5.40
2023-05-15T22:57:06.220Z,4.70
2023-05-15T22:59:38.338Z,4.03
2023-05-15T23:02:09.341Z,4.50
2023-05-15T23:04:47.314Z,4.50
2023-05-15T23:07:17.611Z,3.72
2023-05-15T23:09:46.565Z,4.70
2023-05-15T23:12:17.564Z,4.50
2023-05-15T23:14:49.186Z,4.55
2023-05-15T23:17:17.665Z,4.68
2023-05-15T23:19:50.006Z,4.43
2023-05-15T23:22:18.454Z,4.70
2023-05-15T23:24:58.305Z,4.40
2023-05-15T23:27:27.630Z,4.50
2023-05-15T23:29:58.926Z,4.50
2023-05-15T23:32:28.209Z,4.53
2023-05-15T23:34:58.911Z,4.60
2023-05-15T23:37:32.500Z,4.45
2023-05-15T23:40:03.657Z,4.10
2023-05-15T23:42:32.480Z,5.07
2023-05-15T23:45:04.257Z,4.35
2023-05-15T23:47:37.945Z,4.80
2023-05-15T23:50:06.582Z,4.50
2023-05-15T23:52:35.675Z,4.03
2023-05-15T23:55:07.300Z,4.30
2023-05-15T23:57:35.219Z,4.72
